createdAt,value
2023-02-25T00:01:11.776Z,14.90
2023-02-25T00:05:13.907Z,13.15
2023-02-25T00:09:15.636Z,20.70
2023-02-25T00:13:18.559Z,14.40
2023-02-25T00:17:20.344Z,24.15
2023-02-25T00:21:22.622Z,19.00
2023-02-25T00:25:24.282Z,16.62
2023-02-25T00:29:25.926Z,17.65
2023-02-25T00:33:27.546Z,15.55
2023-02-25T00:37:29.205Z,15.18
2023-02-25T00:41:30.958Z,16.00
2023-02-25T00:45:34.188Z,16.10
2023-02-25T00:49:36.345Z,13.65
2023-02-25T00:53:38.546Z,18.60
2023-02-25T00:57:40.256Z,13.13
2023-02-25T01:01:42.620Z,19.75
2023-02-25T01:05:49.183Z,19.80
2023-02-25T01:09:50.943Z,16.70
2023-02-25T01:13:53.332Z,12.07
2023-02-25T01:17:54.956Z,13.20
2023-02-25T01:21:58.718Z,11.70
2023-02-25T01:26:02.535Z,15.38
2023-02-25T01:30:05.333Z,13.93
2023-02-25T01:34:09.373Z,13.18
2023-02-25T01:38:11.070Z,17.80
2023-02-25T01:42:17.381Z,20.52
2023-02-25T01:46:19.034Z,20.08
2023-02-25T01:50:24.110Z,12.95
2023-02-25T01:54:25.879Z,18.20
2023-02-25T01:58:27.926Z,14.38
2023-02-25T02:02:33.139Z,14.40
2023-02-25T02:06:41.139Z,16.77
2023-02-25T02:10:42.788Z,16.15
2023-02-25T02:14:44.404Z,13.50
2023-02-25T02:18:53.197Z,12.35
2023-02-25T02:23:16.354Z,13.20
2023-02-25T02:27:32.474Z,16.02
2023-02-25T02:31:48.879Z,11.32
2023-02-25T02:36:04.056Z,10.40
2023-02-25T02:40:15.239Z,13.07
2023-02-25T02:44:51.974Z,15.18
2023-02-25T02:49:01.071Z,15.75
2023-02-25T02:53:17.588Z,16.75
2023-02-25T02:57:21.995Z,11.40
2023-02-25T03:01:29.774Z,11.32
2023-02-25T03:05:35.059Z,10.88
2023-02-25T03:09:46.129Z,16.48
2023-02-25T03:13:48.367Z,14.27
2023-02-25T03:17:57.435Z,17.62
2023-02-25T03:22:14.390Z,12.55
2023-02-25T03:26:28.059Z,13.85
2023-02-25T03:30:39.158Z,21.62
2023-02-25T03:34:45.033Z,19.23
2023-02-25T03:38:50.865Z,19.48
2023-02-25T03:43:02.100Z,14.87
2023-02-25T03:47:05.681Z,16.30
2023-02-25T03:51:08.345Z,17.37
2023-02-25T03:55:11.853Z,12.20
2023-02-25T03:59:14.250Z,19.42
2023-02-25T04:03:15.911Z,15.88
2023-02-25T04:07:17.603Z,17.58
2023-02-25T04:11:19.397Z,12.07
2023-02-25T04:15:21.666Z,14.75
2023-02-25T04:19:23.336Z,18.75
2023-02-25T04:23:25.008Z,20.77
2023-02-25T04:27:27.178Z,16.27
2023-02-25T04:31:28.876Z,11.40
2023-02-25T04:35:30.766Z,14.68
2023-02-25T04:39:32.918Z,17.98
2023-02-25T04:43:34.519Z,11.70
2023-02-25T04:47:36.493Z,16.60
2023-02-25T04:51:39.325Z,17.45
2023-02-25T04:55:40.992Z,13.48
2023-02-25T04:59:42.720Z,15.98
2023-02-25T05:03:44.450Z,18.45
2023-02-25T05:07:46.222Z,12.52
2023-02-25T05:11:47.972Z,26.42
2023-02-25T05:15:49.912Z,22.50
2023-02-25T05:19:51.599Z,19.02
2023-02-25T05:23:54.093Z,13.75
2023-02-25T05:27:55.702Z,15.52
2023-02-25T05:31:57.447Z,15.52
2023-02-25T05:35:59.359Z,18.40
2023-02-25T05:40:01.195Z,20.85
2023-02-25T05:44:02.827Z,17.80
2023-02-25T05:48:04.717Z,11.35
2023-02-25T05:52:06.355Z,18.60
2023-02-25T05:56:11.904Z,22.35
2023-02-25T06:00:14.956Z,13.52
2023-02-25T06:04:16.838Z,17.15
2023-02-25T06:08:18.793Z,15.88
2023-02-25T06:12:20.431Z,17.12
2023-02-25T06:16:23.337Z,12.20
2023-02-25T06:20:25.143Z,13.02
2023-02-25T06:24:26.871Z,15.48
2023-02-25T06:28:29.874Z,14.07
2023-02-25T06:32:31.773Z,13.45
2023-02-25T06:36:33.729Z,15.77
2023-02-25T06:40:35.333Z,13.45
2023-02-25T06:44:37.109Z,20.05
2023-02-25T06:48:39.345Z,13.80
2023-02-25T06:52:41.166Z,11.85
2023-02-25T06:56:43.156Z,19.60
2023-02-25T07:00:45.011Z,17.90
2023-02-25T07:04:46.677Z,18.45
2023-02-25T07:08:48.367Z,22.52
2023-02-25T07:12:51.435Z,20.05
2023-02-25T07:16:53.880Z,20.98
2023-02-25T07:20:58.174Z,20.27
2023-02-25T07:25:00.426Z,18.65
2023-02-25T07:29:02.616Z,15.15
2023-02-25T07:33:05.906Z,17.60
2023-02-25T07:37:07.761Z,20.83
2023-02-25T07:41:15.576Z,12.43
2023-02-25T07:45:17.429Z,12.23
2023-02-25T07:49:19.258Z,18.25
2023-02-25T07:53:22.423Z,16.37
2023-02-25T07:57:24.094Z,15.27
2023-02-25T08:01:29.276Z,19.58
2023-02-25T08:05:34.837Z,17.80
2023-02-25T08:09:36.565Z,17.95
2023-02-25T08:13:38.535Z,14.25
2023-02-25T08:17:40.227Z,12.60
2023-02-25T08:21:42.760Z,19.15
2023-02-25T08:25:44.452Z,15.27
2023-02-25T08:29:46.098Z,21.75
2023-02-25T08:33:49.533Z,13.88
2023-02-25T08:37:52.794Z,20.52
2023-02-25T08:41:55.127Z,11.48
2023-02-25T08:45:56.799Z,17.02
2023-02-25T08:49:58.499Z,18.27
2023-02-25T08:54:02.507Z,16.33
2023-02-25T08:58:04.131Z,14.18
2023-02-25T09:02:07.439Z,20.88
2023-02-25T09:06:09.099Z,18.87
2023-02-25T09:10:12.749Z,18.52
2023-02-25T09:14:15.051Z,17.45
2023-02-25T09:18:16.657Z,21.98
2023-02-25T09:22:19.618Z,13.65
2023-02-25T09:26:22.596Z,12.57
2023-02-25T09:30:24.312Z,15.98
2023-02-25T09:34:25.982Z,13.93
2023-02-25T09:38:27.624Z,28.33
2023-02-25T09:42:46.755Z,14.13
2023-02-25T09:47:04.259Z,14.75
2023-02-25T09:55:43.754Z,10.50
2023-02-25T09:59:47.283Z,10.20
2023-02-25T10:03:59.589Z,11.95
2023-02-25T10:08:10.537Z,5.47
2023-02-25T10:12:25.513Z,8.55
2023-02-25T10:16:37.613Z,6.87
2023-02-25T10:21:17.581Z,2.92
2023-02-25T10:25:24.881Z,3.33
2023-02-25T10:29:28.501Z,7.53
2023-02-25T10:33:34.289Z,2.95
2023-02-25T10:37:38.027Z,2.12
2023-02-25T10:41:39.712Z,1.77
2023-02-25T10:45:45.528Z,5.87
2023-02-25T10:50:43.280Z,5.35
2023-02-25T10:54:52.562Z,3.55
2023-02-25T10:59:51.600Z,6.12
2023-02-25T11:03:59.149Z,9.20
2023-02-25T11:08:01.951Z,4.82
2023-02-25T11:12:17.750Z,3.17
2023-02-25T11:16:19.524Z,4.50
2023-02-25T11:20:25.507Z,5.55
2023-02-25T11:24:33.447Z,4.55
2023-02-25T11:28:41.041Z,6.90
2023-02-25T11:32:54.766Z,5.55
2023-02-25T11:36:59.840Z,4.93
2023-02-25T11:41:01.725Z,5.37
2023-02-25T11:45:04.964Z,7.30
2023-02-25T11:49:09.321Z,3.62
2023-02-25T11:53:41.937Z,10.02
2023-02-25T11:58:06.299Z,5.37
2023-02-25T12:02:29.104Z,6.78
2023-02-25T12:06:33.447Z,5.68
2023-02-25T12:10:59.822Z,4.90
2023-02-25T12:15:32.577Z,6.62
2023-02-25T12:20:05.364Z,8.18
2023-02-25T12:24:56.883Z,8.43
2023-02-25T12:29:36.005Z,8.68
2023-02-25T12:34:23.910Z,6.68
2023-02-25T12:39:07.000Z,8.90
2023-02-25T12:43:44.871Z,8.95
2023-02-25T12:48:09.214Z,7.72
2023-02-25T12:52:29.165Z,3.92
2023-02-25T12:56:54.189Z,5.75
2023-02-25T13:01:23.122Z,5.82
2023-02-25T13:05:55.582Z,6.65
2023-02-25T13:10:35.030Z,7.18
2023-02-25T13:15:04.494Z,7.20
2023-02-25T13:19:24.698Z,5.90
2023-02-25T13:23:58.799Z,7.07
2023-02-25T13:28:19.214Z,5.70
2023-02-25T13:32:42.214Z,10.20
2023-02-25T13:37:28.133Z,6.82
2023-02-25T13:41:48.027Z,10.25
2023-02-25T13:46:12.232Z,4.28
2023-02-25T13:50:29.771Z,6.18
2023-02-25T13:59:11.205Z,4.50
2023-02-25T14:03:49.369Z,5.28
2023-02-25T14:12:18.142Z,7.93
2023-02-25T14:16:42.748Z,3.95
2023-02-25T14:21:14.581Z,5.03
2023-02-25T14:25:53.217Z,3.53
2023-02-25T14:30:13.194Z,4.95
2023-02-25T14:34:40.297Z,4.05
2023-02-25T14:39:03.968Z,4.60
2023-02-25T14:43:31.320Z,7.07
2023-02-25T14:47:42.212Z,2.08
2023-02-25T14:52:18.921Z,4.95
2023-02-25T14:56:48.766Z,5.47
2023-02-25T15:01:17.240Z,3.42
2023-02-25T15:05:38.024Z,7.50
2023-02-25T15:09:58.313Z,3.45
2023-02-25T15:14:31.968Z,1.40
2023-02-25T15:18:49.443Z,2.90
2023-02-25T15:26:57.302Z,3.97
2023-02-25T15:31:02.036Z,1.73
2023-02-25T15:35:07.728Z,3.65
2023-02-25T15:39:12.335Z,3.20
2023-02-25T15:43:14.147Z,4.68
2023-02-25T15:47:22.169Z,3.72
2023-02-25T15:51:53.509Z,3.60
2023-02-25T15:56:04.029Z,2.78
2023-02-25T16:00:44.088Z,2.70
2023-02-25T16:04:48.864Z,9.57
2023-02-25T16:09:04.509Z,4.47
2023-02-25T16:13:14.596Z,3.75
2023-02-25T16:17:35.977Z,1.58
2023-02-25T16:21:46.424Z,4.65
2023-02-25T16:26:03.227Z,5.82
2023-02-25T16:30:44.285Z,2.03
2023-02-25T16:34:50.079Z,2.08
2023-02-25T16:39:10.761Z,3.05
2023-02-25T16:43:26.858Z,3.75
2023-02-25T16:47:34.763Z,3.20
2023-02-25T16:51:40.549Z,3.35
2023-02-25T16:55:42.286Z,2.55
2023-02-25T16:59:44.285Z,5.57
2023-02-25T17:03:49.097Z,2.35
2023-02-25T17:08:02.017Z,5.28
2023-02-25T17:12:04.474Z,4.72
2023-02-25T17:16:07.423Z,3.80
2023-02-25T17:20:16.991Z,5.00
2023-02-25T17:24:23.133Z,4.00
2023-02-25T17:28:29.263Z,5.80
2023-02-25T17:32:31.041Z,2.13
2023-02-25T17:36:40.875Z,2.45
2023-02-25T17:40:42.751Z,3.92
2023-02-25T17:44:47.689Z,3.90
2023-02-25T17:48:57.470Z,4.35
2023-02-25T17:53:00.311Z,3.08
2023-02-25T17:57:22.604Z,4.70
2023-02-25T18:01:31.049Z,4.10
2023-02-25T18:05:32.936Z,3.47
2023-02-25T18:09:39.111Z,4.28
2023-02-25T18:13:40.806Z,7.17
2023-02-25T18:17:48.731Z,2.97
2023-02-25T18:21:51.015Z,4.75
2023-02-25T18:26:17.518Z,6.70
2023-02-25T18:30:21.484Z,2.65
2023-02-25T18:34:23.131Z,6.78
2023-02-25T18:38:26.692Z,3.42
2023-02-25T18:42:28.339Z,8.63
2023-02-25T18:46:30.032Z,7.12
2023-02-25T18:50:32.652Z,5.20
2023-02-25T18:54:35.037Z,6.07
2023-02-25T18:58:36.621Z,3.17
2023-02-25T19:02:53.443Z,5.53
2023-02-25T19:06:55.164Z,5.53
2023-02-25T19:10:56.924Z,5.85
2023-02-25T19:15:01.440Z,4.30
2023-02-25T19:19:03.132Z,6.85
2023-02-25T19:23:04.821Z,5.20
2023-02-25T19:27:06.465Z,6.40
2023-02-25T19:31:08.754Z,8.70
2023-02-25T19:35:10.925Z,5.32
2023-02-25T19:39:12.529Z,4.80
2023-02-25T19:43:15.122Z,7.07
2023-02-25T19:47:16.749Z,8.60
2023-02-25T19:51:18.390Z,3.33
2023-02-25T19:55:20.223Z,7.12
2023-02-25T19:59:21.941Z,6.28
2023-02-25T20:03:23.586Z,5.32
2023-02-25T20:07:25.944Z,5.55
2023-02-25T20:11:27.911Z,4.97
2023-02-25T20:15:29.572Z,7.68
2023-02-25T20:19:32.424Z,9.00
2023-02-25T20:23:34.197Z,13.95
2023-02-25T20:27:36.915Z,8.27
2023-02-25T20:31:38.657Z,11.88
2023-02-25T20:35:40.929Z,12.23
2023-02-25T20:39:54.130Z,8.85
2023-02-25T20:43:56.034Z,6.28
2023-02-25T20:47:57.757Z,5.28
2023-02-25T20:51:59.707Z,3.20
2023-02-25T20:56:01.329Z,3.15
2023-02-25T21:00:03.358Z,8.40
2023-02-25T21:04:06.244Z,7.22
2023-02-25T21:08:08.189Z,6.05
2023-02-25T21:12:10.142Z,6.90
2023-02-25T21:16:12.028Z,8.98
2023-02-25T21:20:13.662Z,10.73
2023-02-25T21:24:15.570Z,6.22
2023-02-25T21:28:17.382Z,6.90
2023-02-25T21:32:19.051Z,8.23
2023-02-25T21:36:20.690Z,7.35
2023-02-25T21:40:22.346Z,8.18
2023-02-25T21:44:24.219Z,7.03
2023-02-25T21:48:29.720Z,9.93
2023-02-25T21:52:31.329Z,9.38
2023-02-25T21:56:34.097Z,9.50
2023-02-25T22:00:35.728Z,4.80
2023-02-25T22:04:37.395Z,20.15
2023-02-25T22:08:40.349Z,9.55
2023-02-25T22:12:42.031Z,3.87
2023-02-25T22:16:43.719Z,4.72
2023-02-25T22:20:45.371Z,6.28
2023-02-25T22:24:47.038Z,12.93
2023-02-25T22:28:49.032Z,5.37
2023-02-25T22:32:50.695Z,5.97
2023-02-25T22:36:52.383Z,3.70
2023-02-25T22:40:54.097Z,4.68
2023-02-25T22:44:55.745Z,7.20
2023-02-25T22:48:57.984Z,6.28
2023-02-25T22:52:59.627Z,3.28
2023-02-25T22:57:01.307Z,7.68
2023-02-25T23:01:03.108Z,4.75
2023-02-25T23:05:05.038Z,6.30
2023-02-25T23:09:06.729Z,8.48
2023-02-25T23:13:08.645Z,7.07
2023-02-25T23:17:10.269Z,6.15
2023-02-25T23:21:18.756Z,7.82
2023-02-25T23:25:20.438Z,2.45
2023-02-25T23:29:22.231Z,7.20
2023-02-25T23:33:23.950Z,4.62
2023-02-25T23:37:25.637Z,4.82
2023-02-25T23:41:28.775Z,5.10
2023-02-25T23:45:31.016Z,4.53
2023-02-25T23:49:32.740Z,4.93
2023-02-25T23:53:34.675Z,6.32
2023-02-25T23:57:36.307Z,9.38
